createdAt,value
2023-11-29T00:01:50.383Z,5.80
2023-11-29T00:04:20.076Z,5.80
2023-11-29T00:06:47.114Z,5.70
2023-11-29T00:09:14.111Z,5.80
2023-11-29T00:11:43.488Z,5.70
2023-11-29T00:14:11.328Z,5.60
2023-11-29T00:16:38.690Z,5.70
2023-11-29T00:19:05.637Z,5.70
2023-11-29T00:21:33.819Z,5.70
2023-11-29T00:24:03.559Z,5.60
2023-11-29T00:26:30.508Z,5.60
2023-11-29T00:29:00.323Z,5.60
2023-11-29T00:31:27.544Z,5.70
2023-11-29T00:33:57.952Z,5.70
2023-11-29T00:36:25.646Z,5.80
2023-11-29T00:38:52.624Z,5.50
2023-11-29T00:41:19.888Z,5.60
2023-11-29T00:43:48.018Z,5.60
2023-11-29T00:46:15.116Z,5.60
2023-11-29T00:48:42.503Z,5.70
2023-11-29T00:51:09.739Z,5.70
2023-11-29T00:53:36.722Z,5.80
2023-11-29T00:56:04.029Z,5.70
2023-11-29T00:58:31.332Z,5.90
2023-11-29T01:00:58.355Z,5.80
2023-11-29T01:03:28.002Z,5.90
2023-11-29T01:05:55.310Z,5.80
2023-11-29T01:08:26.752Z,5.80
2023-11-29T01:10:54.536Z,5.90
2023-11-29T01:13:22.147Z,6.00
2023-11-29T01:15:49.489Z,6.00
2023-11-29T01:18:20.677Z,6.00
2023-11-29T01:20:48.713Z,6.00
2023-11-29T01:23:16.090Z,6.20
2023-11-29T01:25:43.079Z,6.10
2023-11-29T01:28:11.797Z,6.00
2023-11-29T01:30:38.870Z,6.00
2023-11-29T01:33:06.102Z,6.10
2023-11-29T01:35:33.382Z,6.10
2023-11-29T01:38:00.333Z,6.10
2023-11-29T01:40:27.747Z,6.00
2023-11-29T01:42:54.776Z,6.10
2023-11-29T01:45:21.850Z,6.10
2023-11-29T01:47:49.321Z,6.00
2023-11-29T01:50:19.530Z,6.20
2023-11-29T01:52:47.070Z,6.20
2023-11-29T01:55:15.699Z,6.30
2023-11-29T01:57:43.353Z,6.30
2023-11-29T02:00:14.217Z,6.20
2023-11-29T02:02:41.648Z,6.20
2023-11-29T02:05:09.608Z,6.40
2023-11-29T02:07:37.468Z,6.20
2023-11-29T02:10:06.303Z,6.00
2023-11-29T02:12:34.231Z,5.90
2023-11-29T02:15:04.191Z,5.80
2023-11-29T02:17:31.693Z,5.60
2023-11-29T02:19:58.992Z,5.60
2023-11-29T02:22:29.269Z,5.70
2023-11-29T02:24:56.337Z,5.80
2023-11-29T02:27:24.708Z,5.70
2023-11-29T02:29:51.695Z,5.70
2023-11-29T02:32:18.688Z,5.70
2023-11-29T02:34:48.068Z,5.70
2023-11-29T02:37:15.094Z,5.80
2023-11-29T02:39:50.511Z,5.90
2023-11-29T02:42:17.900Z,6.10
2023-11-29T02:44:45.129Z,6.20
2023-11-29T02:47:12.141Z,6.10
2023-11-29T02:49:39.616Z,6.00
2023-11-29T02:52:06.767Z,6.00
2023-11-29T02:54:34.016Z,6.00
2023-11-29T02:57:01.414Z,6.00
2023-11-29T02:59:30.310Z,5.90
2023-11-29T03:01:57.245Z,5.90
2023-11-29T03:04:24.293Z,5.90
2023-11-29T03:06:52.352Z,5.80
2023-11-29T03:09:19.295Z,5.80
2023-11-29T03:11:46.274Z,5.80
2023-11-29T03:14:13.247Z,5.80
2023-11-29T03:16:40.184Z,5.80
2023-11-29T03:19:07.299Z,5.80
2023-11-29T03:21:34.663Z,5.80
2023-11-29T03:24:01.668Z,5.80
2023-11-29T03:26:29.028Z,5.80
2023-11-29T03:28:58.727Z,5.90
2023-11-29T03:31:37.514Z,5.80
2023-11-29T03:34:04.933Z,5.80
2023-11-29T03:37:11.915Z,5.70
2023-11-29T03:39:39.347Z,5.80
2023-11-29T03:42:06.475Z,5.90
2023-11-29T03:44:34.478Z,5.90
2023-11-29T03:47:01.695Z,5.80
2023-11-29T03:49:31.549Z,5.80
2023-11-29T03:51:59.993Z,5.80
2023-11-29T03:54:29.862Z,5.70
2023-11-29T03:56:57.183Z,5.80
2023-11-29T03:59:24.439Z,5.70
2023-11-29T04:01:51.794Z,5.80
2023-11-29T04:04:20.694Z,5.90
2023-11-29T04:06:47.773Z,6.00
2023-11-29T04:09:17.388Z,6.00
2023-11-29T04:11:50.096Z,5.90
2023-11-29T04:14:17.008Z,5.90
2023-11-29T04:16:44.131Z,6.00
2023-11-29T04:19:11.547Z,6.00
2023-11-29T04:21:41.074Z,6.00
2023-11-29T04:24:08.525Z,6.10
2023-11-29T04:26:37.709Z,6.10
2023-11-29T04:29:07.643Z,5.90
2023-11-29T04:31:36.723Z,6.00
2023-11-29T04:34:09.606Z,6.00
2023-11-29T04:36:48.665Z,6.00
2023-11-29T04:39:17.667Z,6.00
2023-11-29T04:41:44.958Z,6.00
2023-11-29T04:44:11.998Z,6.00
2023-11-29T04:46:38.904Z,6.10
2023-11-29T04:49:06.994Z,6.10
2023-11-29T04:51:34.179Z,6.10
2023-11-29T04:54:01.650Z,6.10
2023-11-29T04:56:30.483Z,6.10
2023-11-29T04:58:58.507Z,6.20
2023-11-29T05:01:26.183Z,6.20
2023-11-29T05:03:53.381Z,6.20
2023-11-29T05:06:26.722Z,6.10
2023-11-29T05:08:54.620Z,6.30
2023-11-29T05:11:22.481Z,6.40
2023-11-29T05:13:49.660Z,6.30
2023-11-29T05:16:16.866Z,6.30
2023-11-29T05:18:44.409Z,6.30
2023-11-29T05:21:11.475Z,6.30
2023-11-29T05:23:51.032Z,6.40
2023-11-29T05:26:18.275Z,6.60
2023-11-29T05:28:46.760Z,6.50
2023-11-29T05:31:14.616Z,6.30
2023-11-29T05:33:41.936Z,6.30
2023-11-29T05:36:10.094Z,6.40
2023-11-29T05:38:39.096Z,6.30
2023-11-29T05:41:07.183Z,6.20
2023-11-29T05:43:34.073Z,6.20
2023-11-29T05:46:01.096Z,6.10
2023-11-29T05:48:28.321Z,6.10
2023-11-29T05:50:58.145Z,6.10
2023-11-29T05:53:25.275Z,6.10
2023-11-29T05:55:52.940Z,6.20
2023-11-29T05:58:20.305Z,6.10
2023-11-29T06:00:47.441Z,6.00
2023-11-29T06:03:14.405Z,6.00
2023-11-29T06:05:42.124Z,6.10
2023-11-29T06:08:13.556Z,6.10
2023-11-29T06:10:41.594Z,6.10
2023-11-29T06:13:08.828Z,6.10
2023-11-29T06:15:36.990Z,6.10
2023-11-29T06:18:04.306Z,6.10
2023-11-29T06:20:32.511Z,6.00
2023-11-29T06:22:59.546Z,6.00
2023-11-29T06:25:26.608Z,5.80
2023-11-29T06:27:54.240Z,5.90
2023-11-29T06:30:21.442Z,5.80
2023-11-29T06:32:49.076Z,5.80
2023-11-29T06:35:17.801Z,5.80
2023-11-29T06:37:51.344Z,5.80
2023-11-29T06:40:24.367Z,5.80
2023-11-29T06:42:51.923Z,6.00
2023-11-29T06:45:21.511Z,6.10
2023-11-29T06:47:49.026Z,6.20
2023-11-29T06:50:16.380Z,6.10
2023-11-29T06:52:45.865Z,6.00
2023-11-29T06:55:14.884Z,6.10
2023-11-29T06:57:42.582Z,5.90
2023-11-29T07:00:11.636Z,6.00
2023-11-29T07:02:43.213Z,5.90
2023-11-29T07:05:12.320Z,5.80
2023-11-29T07:07:39.897Z,5.70
2023-11-29T07:10:07.606Z,5.70
2023-11-29T07:12:35.403Z,5.70
2023-11-29T07:15:03.125Z,5.80
2023-11-29T07:17:30.327Z,5.80
2023-11-29T07:19:57.397Z,5.90
2023-11-29T07:22:25.764Z,5.80
2023-11-29T07:24:56.958Z,5.80
2023-11-29T07:27:24.589Z,5.60
2023-11-29T07:29:51.782Z,5.70
2023-11-29T07:32:21.560Z,5.90
2023-11-29T07:34:48.799Z,5.80
2023-11-29T07:37:19.801Z,5.80
2023-11-29T07:39:47.107Z,5.90
2023-11-29T07:42:14.930Z,5.90
2023-11-29T07:44:45.219Z,5.80
2023-11-29T07:47:12.758Z,5.90
2023-11-29T07:49:39.933Z,5.80
2023-11-29T07:52:09.968Z,5.70
2023-11-29T07:54:36.951Z,5.80
2023-11-29T07:57:06.865Z,5.80
2023-11-29T07:59:34.285Z,5.70
2023-11-29T08:02:01.259Z,5.80
2023-11-29T08:04:28.937Z,5.70
2023-11-29T08:06:56.674Z,5.80
2023-11-29T08:09:24.246Z,5.70
2023-11-29T08:11:51.649Z,5.80
2023-11-29T08:14:18.778Z,5.80
2023-11-29T08:16:46.146Z,5.90
2023-11-29T08:19:13.334Z,5.80
2023-11-29T08:21:40.948Z,5.90
2023-11-29T08:24:08.264Z,6.00
2023-11-29T08:26:38.898Z,5.90
2023-11-29T08:29:09.070Z,6.00
2023-11-29T08:31:35.973Z,6.00
2023-11-29T08:34:03.257Z,6.10
2023-11-29T08:36:30.441Z,6.30
2023-11-29T08:39:00.534Z,6.40
2023-11-29T08:41:27.612Z,6.50
2023-11-29T08:43:55.846Z,6.60
2023-11-29T08:46:23.781Z,6.70
2023-11-29T08:48:50.889Z,6.80
2023-11-29T08:51:18.236Z,7.00
2023-11-29T08:53:45.841Z,7.00
2023-11-29T08:56:20.068Z,7.00
2023-11-29T08:58:48.615Z,7.00
2023-11-29T09:01:20.466Z,7.10
2023-11-29T09:03:48.469Z,7.20
2023-11-29T09:06:17.273Z,7.20
2023-11-29T09:08:45.376Z,7.20
2023-11-29T09:11:13.096Z,6.90
2023-11-29T09:13:40.326Z,6.80
2023-11-29T09:16:08.678Z,6.80
2023-11-29T09:18:38.234Z,7.00
2023-11-29T09:21:06.184Z,7.20
2023-11-29T09:23:36.093Z,7.20
2023-11-29T09:26:03.172Z,7.10
2023-11-29T09:28:30.687Z,7.20
2023-11-29T09:31:02.250Z,7.20
2023-11-29T09:33:30.911Z,7.40
2023-11-29T09:35:58.054Z,7.60
2023-11-29T09:38:25.967Z,7.80
2023-11-29T09:40:53.104Z,8.10
2023-11-29T09:43:20.254Z,8.50
2023-11-29T09:45:47.948Z,8.40
2023-11-29T09:48:15.875Z,8.90
2023-11-29T09:50:43.221Z,9.00
2023-11-29T09:53:11.556Z,9.00
2023-11-29T09:55:38.682Z,9.00
2023-11-29T09:58:11.284Z,8.90
2023-11-29T10:00:38.721Z,9.10
2023-11-29T10:03:13.560Z,8.90
2023-11-29T10:05:48.474Z,9.00
2023-11-29T10:08:22.884Z,8.80
2023-11-29T10:10:51.949Z,9.10
2023-11-29T10:13:19.881Z,9.50
2023-11-29T10:15:49.089Z,9.40
2023-11-29T10:18:18.148Z,9.60
2023-11-29T10:21:00.410Z,9.80
2023-11-29T10:23:34.349Z,9.80
2023-11-29T10:26:01.435Z,9.90
2023-11-29T10:28:28.310Z,10.10
2023-11-29T10:30:55.920Z,10.30
2023-11-29T10:33:23.493Z,10.40
2023-11-29T10:35:51.378Z,10.60
2023-11-29T10:38:19.588Z,10.30
2023-11-29T10:40:47.825Z,10.20
2023-11-29T10:43:24.893Z,10.20
2023-11-29T10:45:58.895Z,10.40
2023-11-29T10:48:31.233Z,10.80
2023-11-29T10:50:59.174Z,10.90
2023-11-29T10:53:26.841Z,11.20
2023-11-29T10:55:55.877Z,11.30
2023-11-29T10:58:29.879Z,11.40
2023-11-29T11:00:57.373Z,11.40
2023-11-29T11:03:44.531Z,11.20
2023-11-29T11:06:25.499Z,11.30
2023-11-29T11:08:53.394Z,11.20
2023-11-29T11:11:48.217Z,11.10
2023-11-29T11:14:23.591Z,10.80
2023-11-29T11:17:19.943Z,10.90
2023-11-29T11:19:48.974Z,11.00
2023-11-29T11:22:23.434Z,10.90
2023-11-29T11:24:57.799Z,10.90
2023-11-29T11:27:32.537Z,10.50
2023-11-29T11:29:59.670Z,10.40
2023-11-29T11:32:41.397Z,10.50
2023-11-29T11:35:22.465Z,10.80
2023-11-29T11:37:57.653Z,11.00
2023-11-29T11:40:27.550Z,11.10
2023-11-29T11:42:55.328Z,11.20
2023-11-29T11:45:23.640Z,11.20
2023-11-29T11:47:52.290Z,11.00
2023-11-29T11:50:19.945Z,11.30
2023-11-29T11:52:47.617Z,11.30
2023-11-29T11:55:19.435Z,11.30
2023-11-29T11:57:50.637Z,11.40
2023-11-29T12:00:18.816Z,11.50
2023-11-29T12:02:46.469Z,11.80
2023-11-29T12:05:14.638Z,11.80
2023-11-29T12:07:44.667Z,11.90
2023-11-29T12:10:15.531Z,12.20
2023-11-29T12:12:43.685Z,12.30
2023-11-29T12:15:18.953Z,12.40
2023-11-29T12:17:48.118Z,12.40
2023-11-29T12:20:15.858Z,12.40
2023-11-29T12:22:45.823Z,12.30
2023-11-29T12:25:18.171Z,12.00
2023-11-29T12:27:52.012Z,12.40
2023-11-29T12:30:21.326Z,12.50
2023-11-29T12:32:49.538Z,12.80
2023-11-29T12:35:17.905Z,12.60
2023-11-29T12:37:48.298Z,12.60
2023-11-29T12:40:21.141Z,12.60
2023-11-29T12:42:49.235Z,12.60
2023-11-29T12:45:17.494Z,12.60
2023-11-29T12:47:45.320Z,12.80
2023-11-29T12:50:13.847Z,12.90
2023-11-29T12:52:41.830Z,12.60
2023-11-29T12:55:09.748Z,12.50
2023-11-29T12:57:37.465Z,12.40
2023-11-29T13:00:06.210Z,12.40
2023-11-29T13:02:33.812Z,12.20
2023-11-29T13:05:01.173Z,12.20
2023-11-29T13:07:28.573Z,12.20
2023-11-29T13:09:55.551Z,11.90
2023-11-29T13:12:22.588Z,11.70
2023-11-29T13:14:49.819Z,11.20
2023-11-29T13:17:17.106Z,11.10
2023-11-29T13:19:44.531Z,10.90
2023-11-29T13:22:12.045Z,10.70
2023-11-29T13:24:39.646Z,10.80
2023-11-29T13:27:07.367Z,10.60
2023-11-29T13:29:37.707Z,10.40
2023-11-29T13:32:05.292Z,10.50
2023-11-29T13:34:33.649Z,10.20
2023-11-29T13:37:02.019Z,10.50
2023-11-29T13:39:29.686Z,10.10
2023-11-29T13:41:57.318Z,10.20
2023-11-29T13:44:28.672Z,10.20
2023-11-29T13:46:57.159Z,10.10
2023-11-29T13:49:24.620Z,10.10
2023-11-29T13:52:03.667Z,10.00
2023-11-29T13:54:36.304Z,9.90
2023-11-29T13:57:05.509Z,10.00
2023-11-29T13:59:32.914Z,10.00
2023-11-29T14:02:04.437Z,10.10
2023-11-29T14:04:34.710Z,9.80
2023-11-29T14:07:02.333Z,9.90
2023-11-29T14:09:36.318Z,10.00
2023-11-29T14:12:06.891Z,10.20
2023-11-29T14:14:34.192Z,10.50
2023-11-29T14:17:01.436Z,10.40
2023-11-29T14:19:28.804Z,10.60
2023-11-29T14:21:56.373Z,10.40
2023-11-29T14:24:28.917Z,10.10
2023-11-29T14:26:58.497Z,10.00
2023-11-29T14:29:26.040Z,9.80
2023-11-29T14:31:53.469Z,9.70
2023-11-29T14:34:22.755Z,9.70
2023-11-29T14:36:54.542Z,9.80
2023-11-29T14:39:22.837Z,9.80
2023-11-29T14:41:49.935Z,9.70
2023-11-29T14:44:18.332Z,9.50
2023-11-29T14:46:45.916Z,9.60
2023-11-29T14:49:16.828Z,9.40
2023-11-29T14:51:50.569Z,9.40
2023-11-29T14:54:17.665Z,9.40
2023-11-29T14:56:44.626Z,9.40
2023-11-29T14:59:14.561Z,9.50
2023-11-29T15:01:41.801Z,9.40
2023-11-29T15:04:09.159Z,9.60
2023-11-29T15:06:36.089Z,9.60
2023-11-29T15:09:03.238Z,9.70
2023-11-29T15:11:30.924Z,9.70
2023-11-29T15:13:58.930Z,9.60
2023-11-29T15:16:26.273Z,9.50
2023-11-29T15:18:53.240Z,9.40
2023-11-29T15:21:20.328Z,9.30
2023-11-29T15:23:47.375Z,9.40
2023-11-29T15:26:14.250Z,9.50
2023-11-29T15:28:42.054Z,9.60
2023-11-29T15:31:09.189Z,9.40
2023-11-29T15:33:36.303Z,9.60
2023-11-29T15:36:03.603Z,9.70
2023-11-29T15:38:31.052Z,9.50
2023-11-29T15:40:58.329Z,9.60
2023-11-29T15:43:25.272Z,9.50
2023-11-29T15:45:52.929Z,9.30
2023-11-29T15:48:20.914Z,9.10
2023-11-29T15:50:47.971Z,9.00
2023-11-29T15:53:15.027Z,8.80
2023-11-29T15:55:42.250Z,8.70
2023-11-29T15:58:09.089Z,8.70
2023-11-29T16:00:36.238Z,8.80
2023-11-29T16:03:03.529Z,8.90
2023-11-29T16:05:31.519Z,8.80
2023-11-29T16:07:58.593Z,8.70
2023-11-29T16:10:26.049Z,8.70
2023-11-29T16:12:52.987Z,8.70
2023-11-29T16:15:20.041Z,8.60
2023-11-29T16:17:47.177Z,8.60
2023-11-29T16:20:15.673Z,8.70
2023-11-29T16:22:42.816Z,8.80
2023-11-29T16:25:10.201Z,8.80
2023-11-29T16:27:37.948Z,9.00
2023-11-29T16:30:06.597Z,9.10
2023-11-29T16:32:34.800Z,9.10
2023-11-29T16:35:05.068Z,8.80
2023-11-29T16:37:32.688Z,8.90
2023-11-29T16:39:59.650Z,8.80
2023-11-29T16:42:26.849Z,8.70
2023-11-29T16:44:54.001Z,8.90
2023-11-29T16:47:21.587Z,8.90
2023-11-29T16:49:48.694Z,8.70
2023-11-29T16:52:18.402Z,8.60
2023-11-29T16:54:45.609Z,8.50
2023-11-29T16:57:12.750Z,8.40
2023-11-29T16:59:42.157Z,8.30
2023-11-29T17:02:09.884Z,8.20
2023-11-29T17:04:38.537Z,8.00
2023-11-29T17:07:06.911Z,8.00
2023-11-29T17:09:34.285Z,8.10
2023-11-29T17:12:01.275Z,8.00
2023-11-29T17:14:28.622Z,7.80
2023-11-29T17:16:56.347Z,7.80
2023-11-29T17:19:23.369Z,7.70
2023-11-29T17:21:53.305Z,7.70
2023-11-29T17:24:20.448Z,7.60
2023-11-29T17:26:47.626Z,7.50
2023-11-29T17:29:15.029Z,7.40
2023-11-29T17:31:42.094Z,7.30
2023-11-29T17:34:09.021Z,7.20
2023-11-29T17:36:35.971Z,7.10
2023-11-29T17:39:03.549Z,7.10
2023-11-29T17:41:30.849Z,6.90
2023-11-29T17:44:01.167Z,7.00
2023-11-29T17:46:28.379Z,6.90
2023-11-29T17:48:56.592Z,6.90
2023-11-29T17:51:23.607Z,6.90
2023-11-29T17:53:52.613Z,6.90
2023-11-29T17:56:28.788Z,6.80
2023-11-29T17:59:03.809Z,6.80
2023-11-29T18:01:31.328Z,6.90
2023-11-29T18:03:58.834Z,6.80
2023-11-29T18:06:26.951Z,6.70
2023-11-29T18:08:55.277Z,6.80
2023-11-29T18:11:22.448Z,6.80
2023-11-29T18:13:53.707Z,6.80
2023-11-29T18:16:20.922Z,6.80
2023-11-29T18:18:48.975Z,6.80
2023-11-29T18:21:16.074Z,6.80
2023-11-29T18:23:43.035Z,6.80
2023-11-29T18:26:10.378Z,6.80
2023-11-29T18:28:38.438Z,6.80
2023-11-29T18:31:05.804Z,6.70
2023-11-29T18:33:33.143Z,6.70
2023-11-29T18:36:02.657Z,6.70
2023-11-29T18:38:29.816Z,6.70
2023-11-29T18:40:56.990Z,6.80
2023-11-29T18:43:24.117Z,6.70
2023-11-29T18:45:51.631Z,6.70
2023-11-29T18:48:21.631Z,6.70
2023-11-29T18:50:48.822Z,6.70
2023-11-29T18:53:18.060Z,6.90
2023-11-29T18:55:45.165Z,6.90
2023-11-29T18:58:12.520Z,7.00
2023-11-29T19:00:39.929Z,7.00
2023-11-29T19:03:07.133Z,7.10
2023-11-29T19:05:34.346Z,7.10
2023-11-29T19:08:02.293Z,7.10
2023-11-29T19:10:29.226Z,7.10
2023-11-29T19:12:56.412Z,7.10
2023-11-29T19:15:23.962Z,7.00
2023-11-29T19:17:51.064Z,7.10
2023-11-29T19:20:18.764Z,7.10
2023-11-29T19:22:46.309Z,7.10
2023-11-29T19:25:13.573Z,7.00
2023-11-29T19:27:42.310Z,7.00
2023-11-29T19:30:10.000Z,7.00
2023-11-29T19:32:40.708Z,7.10
2023-11-29T19:35:18.314Z,7.10
2023-11-29T19:37:52.654Z,7.00
2023-11-29T19:40:19.744Z,7.00
2023-11-29T19:42:46.727Z,7.20
2023-11-29T19:45:14.195Z,7.30
2023-11-29T19:47:41.369Z,7.40
2023-11-29T19:50:08.896Z,7.40
2023-11-29T19:52:44.253Z,7.30
2023-11-29T19:55:19.123Z,7.20
2023-11-29T19:57:49.261Z,7.00
2023-11-29T20:00:17.302Z,7.00
2023-11-29T20:02:49.448Z,7.00
2023-11-29T20:05:17.814Z,7.00
2023-11-29T20:07:48.672Z,7.00
2023-11-29T20:10:15.809Z,7.00
2023-11-29T20:12:42.880Z,6.90
2023-11-29T20:15:10.633Z,6.90
2023-11-29T20:17:37.828Z,6.80
2023-11-29T20:20:16.509Z,6.80
2023-11-29T20:22:48.180Z,6.90
2023-11-29T20:25:15.425Z,6.80
2023-11-29T20:27:43.315Z,6.80
2023-11-29T20:30:11.284Z,6.80
2023-11-29T20:32:38.740Z,6.70
2023-11-29T20:35:25.093Z,6.70
2023-11-29T20:37:54.612Z,6.60
2023-11-29T20:40:22.922Z,6.40
2023-11-29T20:42:52.249Z,6.40
2023-11-29T20:45:19.269Z,6.30
2023-11-29T20:47:46.240Z,6.30
2023-11-29T20:50:13.469Z,6.20
2023-11-29T20:52:43.178Z,6.30
2023-11-29T20:55:10.389Z,6.30
2023-11-29T20:57:37.527Z,6.20
2023-11-29T21:00:06.624Z,6.20
2023-11-29T21:02:33.759Z,6.10
2023-11-29T21:05:01.109Z,6.10
2023-11-29T21:07:29.135Z,6.10
2023-11-29T21:09:56.067Z,6.10
2023-11-29T21:12:23.401Z,6.10
2023-11-29T21:14:50.774Z,6.20
2023-11-29T21:17:18.560Z,6.30
2023-11-29T21:19:45.743Z,6.30
2023-11-29T21:22:12.874Z,6.30
2023-11-29T21:24:40.286Z,6.30
2023-11-29T21:27:07.199Z,6.30
2023-11-29T21:29:34.470Z,6.40
2023-11-29T21:32:02.031Z,6.30
2023-11-29T21:34:29.069Z,6.30
2023-11-29T21:36:56.506Z,6.30
2023-11-29T21:39:23.765Z,6.30
2023-11-29T21:41:50.711Z,6.30
2023-11-29T21:44:18.369Z,6.20
2023-11-29T21:46:47.290Z,6.30
2023-11-29T21:49:16.632Z,6.30
2023-11-29T21:51:44.317Z,6.10
2023-11-29T21:54:11.245Z,6.00
2023-11-29T21:56:38.253Z,5.90
2023-11-29T21:59:05.266Z,5.90
2023-11-29T22:01:35.473Z,5.90
2023-11-29T22:04:02.759Z,5.80
2023-11-29T22:06:30.023Z,5.90
2023-11-29T22:08:57.101Z,5.90
2023-11-29T22:11:24.087Z,5.90
2023-11-29T22:13:51.172Z,6.00
2023-11-29T22:16:22.945Z,6.00
2023-11-29T22:18:51.376Z,6.00
2023-11-29T22:21:29.233Z,6.10
2023-11-29T22:23:57.533Z,6.10
2023-11-29T22:26:25.986Z,6.10
2023-11-29T22:28:52.987Z,6.10
2023-11-29T22:31:20.357Z,6.10
2023-11-29T22:33:50.159Z,6.20
2023-11-29T22:36:19.228Z,6.10
2023-11-29T22:38:46.510Z,6.10
2023-11-29T22:41:24.539Z,6.20
2023-11-29T22:43:53.638Z,6.10
2023-11-29T22:46:24.003Z,6.00
2023-11-29T22:48:52.307Z,6.00
2023-11-29T22:51:21.539Z,6.10
2023-11-29T22:53:49.957Z,6.20
2023-11-29T22:56:18.098Z,6.30
2023-11-29T22:58:46.545Z,6.30
2023-11-29T23:01:15.192Z,6.30
2023-11-29T23:03:43.050Z,6.40
2023-11-29T23:06:12.034Z,6.40
2023-11-29T23:08:41.757Z,6.40
2023-11-29T23:11:09.739Z,6.50
2023-11-29T23:13:37.290Z,6.50
2023-11-29T23:16:07.571Z,6.50
2023-11-29T23:18:34.544Z,6.50
2023-11-29T23:21:01.773Z,6.60
2023-11-29T23:23:30.186Z,6.60
2023-11-29T23:25:57.210Z,6.60
2023-11-29T23:28:24.807Z,6.60
2023-11-29T23:30:54.480Z,6.60
2023-11-29T23:33:21.586Z,6.50
2023-11-29T23:35:48.845Z,6.50
2023-11-29T23:38:16.099Z,6.50
2023-11-29T23:40:43.629Z,6.60
2023-11-29T23:43:10.802Z,6.60
2023-11-29T23:45:37.921Z,6.60
2023-11-29T23:48:05.133Z,6.60
2023-11-29T23:50:32.288Z,6.60
2023-11-29T23:52:59.343Z,6.60
2023-11-29T23:55:26.221Z,6.60
2023-11-29T23:57:53.130Z,6.50
